Montpelier, Louisiana
Current Conditions -  °F | °C
As of 11:55 PM on Saturday 22 Nov 2014 (Local Time) from KHDC Reporting Station
Overcast Overcast  
Wind Chill: 64°   Ceiling: 900
Heat Index: 64°   Visibility: 10mi
Dew Point: 61°   Wind: 12mph
Humidity: 88%   Direction: 110°ESE
Pressure: 29.9"   Gusts: 18mph
Location:  30.7279°N, 90.6769°W
Report Text: KHDC 230555Z AUTO 11010G16KT 10SM OVC009 18/16 A2990 RMK AO2
Loading
Personal Weather Stations






























Interactive Weather Map New forecast layout! Learn more

10-Day Weather Forecast

Advertisements
Track Severe Weather on mobile